Terminal Aerodrome Forecast
Issued by NWS

Home | Current Version | Previous Version | Text Only | Print | Product List | Glossary On
Versions: 1 2 3 4 5 6 7 8 9 10 11 12 13 14 15 16 17 18 19 20
000
FTUS42 KTAE 231700
TAFVLD
TAF
KVLD 231724Z 2318/2418 05011KT P6SM SCT040
     FM240300 05008KT P6SM SCT025
     FM240800 04007KT P6SM BKN012
      TEMPO 2410/2413 BKN007
     FM241500 04008KT P6SM BKN025=

USA.gov is the U.S. government's official web portal to all federal, state and local government web resources and services.